createdAt,value
2022-08-16T04:26:46.377Z,3.7
2022-08-16T04:29:14.615Z,12.6
2022-08-16T04:31:12.374Z,12.9
2022-08-16T04:33:27.847Z,13.2
2022-08-16T04:35:42.315Z,14.5
2022-08-16T04:37:57.705Z,5.3
2022-08-16T04:40:20.722Z,6
2022-08-16T04:42:30.521Z,4.9
2022-08-16T04:44:52.954Z,3.7
2022-08-16T04:47:21.287Z,3.3
2022-08-16T04:49:20.553Z,3.5
2022-08-16T04:51:37.022Z,3.1
2022-08-16T04:53:53.568Z,3.2
2022-08-16T04:56:11.068Z,3.3
2022-08-16T04:58:38.250Z,3.1
2022-08-16T05:00:42.902Z,2.7
2022-08-16T05:03:01.139Z,3
2022-08-16T05:05:16.997Z,3.5
2022-08-16T05:07:31.084Z,3.3
2022-08-16T05:09:48.976Z,3.4
2022-08-16T05:12:02.991Z,3.2
2022-08-16T05:14:42.351Z,2.8
2022-08-16T05:16:35.705Z,3.1
2022-08-16T05:18:50.067Z,3.3
2022-08-16T05:21:09.808Z,2.9
2022-08-16T05:23:23.785Z,3.2
2022-08-16T05:25:41.418Z,2.7
2022-08-16T05:27:56.638Z,2.6
2022-08-16T05:30:34.205Z,2.8
2022-08-16T05:32:32.129Z,2.6
2022-08-16T05:34:45.721Z,2.8
2022-08-16T05:37:00.144Z,3
2022-08-16T05:39:16.643Z,3.2
2022-08-16T05:41:32.141Z,2.9
2022-08-16T05:43:48.536Z,2.7
2022-08-16T05:46:02.918Z,2.8
2022-08-16T05:48:20.268Z,3.4
2022-08-16T05:50:36.608Z,3.3
2022-08-16T05:52:51.040Z,2.7
2022-08-16T05:55:05.442Z,3.4
2022-08-16T05:57:20.893Z,3.1
2022-08-16T05:59:36.280Z,3.4
2022-08-16T06:01:50.841Z,2.4
2022-08-16T06:04:12.597Z,3.2
2022-08-16T06:06:27.832Z,3.1
2022-08-16T06:08:41.974Z,3.2
2022-08-16T06:11:02.761Z,4
2022-08-16T06:13:17.073Z,3.7
2022-08-16T06:15:32.196Z,4.1
2022-08-16T06:17:46.655Z,4.4
2022-08-16T06:20:01.047Z,4.3
2022-08-16T06:22:19.568Z,3.8
2022-08-16T06:24:53.260Z,3.7
2022-08-16T06:26:57.655Z,4.2
2022-08-16T06:29:08.608Z,3.5
2022-08-16T06:31:25.165Z,3.8
2022-08-16T06:33:42.278Z,3.9
2022-08-16T06:35:59.642Z,3.8
2022-08-16T06:38:32.073Z,3.6
2022-08-16T06:40:33.885Z,3.7
2022-08-16T06:42:55.415Z,3.5
2022-08-16T06:45:06.375Z,3.6
2022-08-16T06:47:21.746Z,4
2022-08-16T06:49:36.111Z,3.8
2022-08-16T06:51:50.543Z,3.2
2022-08-16T06:54:05.937Z,4.1
2022-08-16T06:56:23.239Z,3.1
2022-08-16T06:58:39.848Z,3.9
2022-08-16T07:00:55.177Z,3.4
2022-08-16T07:03:26.699Z,3.5
2022-08-16T07:05:41.652Z,3.8
2022-08-16T07:07:45.935Z,3.6
2022-08-16T07:10:08.584Z,3.9
2022-08-16T07:12:17.644Z,3.4
2022-08-16T07:14:33.823Z,4.5
2022-08-16T07:16:50.100Z,4.5
2022-08-16T07:19:05.479Z,3.7
2022-08-16T07:21:20.860Z,4.4
2022-08-16T07:23:39.216Z,4.4
2022-08-16T07:25:55.485Z,4.1
2022-08-16T07:28:20.235Z,4.4
2022-08-16T07:30:40.041Z,4.5
2022-08-16T07:32:51.441Z,5
2022-08-16T07:35:02.703Z,4.8
2022-08-16T07:37:17.919Z,4.4
2022-08-16T07:39:34.423Z,3.5
2022-08-16T07:41:49.646Z,3.8
2022-08-16T07:44:15.553Z,4.1
2022-08-16T07:46:38.311Z,4.7
2022-08-16T07:48:40.684Z,4.1
2022-08-16T07:50:59.685Z,4.6
2022-08-16T07:53:13.606Z,4.8
2022-08-16T07:55:29.265Z,4.8
2022-08-16T07:57:58.008Z,4.8
2022-08-16T08:00:03.225Z,5
2022-08-16T08:02:22.301Z,4.6
2022-08-16T08:04:37.643Z,4.9
2022-08-16T08:06:53.044Z,5.3
2022-08-16T08:09:07.536Z,4.8
2022-08-16T08:11:24.105Z,4.8
2022-08-16T08:13:42.117Z,5.2
2022-08-16T08:15:57.074Z,4.5
2022-08-16T08:18:29.091Z,4.2
2022-08-16T08:20:29.986Z,4.5
2022-08-16T08:22:45.724Z,4.3
2022-08-16T08:25:03.535Z,4.4
2022-08-16T08:27:22.681Z,4.5
2022-08-16T08:29:38.203Z,3.8
2022-08-16T08:31:53.801Z,4.2
2022-08-16T08:34:07.912Z,4.2
2022-08-16T08:36:23.263Z,4.1
2022-08-16T08:38:44.308Z,3.5
2022-08-16T08:40:55.083Z,3.7
2022-08-16T08:43:17.840Z,3.6
2022-08-16T08:45:47.419Z,4.2
2022-08-16T08:47:46.505Z,3.9
2022-08-16T08:50:02.113Z,3.7
2022-08-16T08:52:33.871Z,4
2022-08-16T08:54:35.014Z,3.9
2022-08-16T08:56:51.539Z,4.4
2022-08-16T08:59:12.718Z,3.9
2022-08-16T09:01:31.307Z,4.3
2022-08-16T09:03:43.538Z,4
2022-08-16T09:05:57.954Z,3.7
2022-08-16T09:08:13.367Z,4.2
2022-08-16T09:10:29.986Z,4.4
2022-08-16T09:12:46.419Z,3.8
2022-08-16T09:15:00.733Z,4.1
2022-08-16T09:17:31.838Z,4.5
2022-08-16T09:19:34.737Z,5.1
2022-08-16T09:21:55.363Z,3.6
2022-08-16T09:24:09.908Z,4.9
2022-08-16T09:26:43.154Z,4.4
2022-08-16T09:29:16.401Z,6.3
2022-08-16T09:30:59.587Z,4.1
2022-08-16T09:33:13.950Z,3.9
2022-08-16T09:35:30.650Z,3.9
2022-08-16T09:37:45.644Z,4.3
2022-08-16T09:40:02.013Z,4.6
2022-08-16T09:42:18.897Z,3.6
2022-08-16T09:45:10.252Z,4.7
2022-08-16T09:46:54.845Z,3.7
2022-08-16T09:49:09.350Z,4
2022-08-16T09:51:25.684Z,3.8
2022-08-16T09:53:41.079Z,3.9
2022-08-16T09:55:57.621Z,3.6
2022-08-16T09:58:39.170Z,3.4
2022-08-16T10:00:42.223Z,3.4
2022-08-16T10:02:48.533Z,3.3
2022-08-16T10:05:02.912Z,3.3
2022-08-16T10:07:19.109Z,3.5
2022-08-16T10:09:45.364Z,3.2
2022-08-16T10:11:51.798Z,3.5
2022-08-16T10:14:06.199Z,3.5
2022-08-16T10:16:22.602Z,3.4
2022-08-16T10:18:56.909Z,3.3
2022-08-16T10:20:57.440Z,3.5
2022-08-16T10:23:16.929Z,3.3
2022-08-16T10:27:00.207Z,3.2
2022-08-16T10:27:50.625Z,3.6
2022-08-16T10:30:06.357Z,3.3
2022-08-16T10:32:22.139Z,3.3
2022-08-16T10:34:37.460Z,3.3
2022-08-16T10:36:54.181Z,3.2
2022-08-16T10:39:09.248Z,3.2
2022-08-16T10:41:25.571Z,3.3
2022-08-16T10:43:41.045Z,3.3
2022-08-16T10:46:00.078Z,3.7
2022-08-16T10:48:27.596Z,3.3
2022-08-16T10:50:31.020Z,3.3
2022-08-16T10:52:46.330Z,2.9
2022-08-16T10:57:19.080Z,3
2022-08-16T10:59:39.326Z,3.6
2022-08-16T11:06:28.673Z,2.9
2022-08-16T11:08:45.708Z,3.1
2022-08-16T11:11:05.692Z,3.3
2022-08-16T11:15:36.743Z,2.8
2022-08-16T11:18:49.178Z,3.1
2022-08-16T11:22:39.071Z,2.9
2022-08-16T11:24:45.510Z,3
2022-08-16T11:27:20.008Z,3
2022-08-16T11:29:18.063Z,3.1
2022-08-16T11:31:33.493Z,3
2022-08-16T11:33:52.646Z,3
2022-08-16T11:36:24.902Z,3
2022-08-16T11:38:47.993Z,3.1
2022-08-16T11:40:44.086Z,4
2022-08-16T11:42:58.198Z,2.9
2022-08-16T11:45:14.690Z,3
2022-08-16T11:47:29.042Z,3.1
2022-08-16T11:49:43.408Z,3.2
2022-08-16T11:51:58.761Z,3
2022-08-16T11:54:20.300Z,2.8
2022-08-16T11:56:40.011Z,3
2022-08-16T11:58:51.636Z,2.9
2022-08-16T12:01:05.209Z,2.9
2022-08-16T12:03:20.435Z,3.2
2022-08-16T12:05:34.985Z,3
2022-08-16T12:07:49.533Z,2.9
2022-08-16T12:10:03.729Z,2.9
2022-08-16T12:12:19.159Z,2.8
2022-08-16T12:14:36.576Z,2.9
2022-08-16T12:16:55.356Z,3.8
2022-08-16T12:19:10.340Z,3.3
2022-08-16T12:21:24.560Z,3
2022-08-16T12:23:40.309Z,3.7
2022-08-16T12:25:54.723Z,3.3
2022-08-16T12:28:09.091Z,3.3
2022-08-16T12:30:26.952Z,2.8
2022-08-16T12:32:42.770Z,2.9
2022-08-16T12:34:57.118Z,2.9
2022-08-16T12:37:12.444Z,3
2022-08-16T12:39:28.838Z,2.7
2022-08-16T12:41:45.252Z,2.8
2022-08-16T12:44:01.652Z,3.1
2022-08-16T12:46:16.836Z,2.9
2022-08-16T12:48:34.030Z,3.1
2022-08-16T12:50:50.539Z,3
2022-08-16T12:53:07.001Z,2.7
2022-08-16T12:55:22.816Z,2.8
2022-08-16T12:57:37.796Z,2.9
2022-08-16T12:59:54.167Z,2.8
2022-08-16T13:02:12.488Z,2.7
2022-08-16T13:04:26.846Z,2.7
2022-08-16T13:06:41.196Z,2.6
2022-08-16T13:08:57.554Z,2.8
2022-08-16T13:11:13.884Z,2.9
2022-08-16T13:13:30.228Z,2.8
2022-08-16T13:15:49.948Z,2.7
2022-08-16T13:18:02.963Z,3
2022-08-16T13:20:18.261Z,3.2
2022-08-16T13:22:33.744Z,2.5
2022-08-16T13:24:48.228Z,2.7
2022-08-16T13:27:04.547Z,2.8
2022-08-16T13:29:19.094Z,2.7
2022-08-16T13:31:34.429Z,3
2022-08-16T13:33:48.932Z,2.9
2022-08-16T13:36:04.275Z,2.9
2022-08-16T13:38:21.745Z,2.9
2022-08-16T13:40:36.151Z,2.8
2022-08-16T13:42:50.638Z,2.8
2022-08-16T13:45:05.180Z,2.6
2022-08-16T13:47:21.587Z,2.9
2022-08-16T13:49:37.782Z,2.8
2022-08-16T13:51:53.348Z,2.8
2022-08-16T13:54:08.122Z,3
2022-08-16T13:56:25.815Z,3
2022-08-16T13:58:50.646Z,3
2022-08-16T14:00:59.374Z,3.3
2022-08-16T14:03:18.244Z,3.2
2022-08-16T14:05:32.623Z,3.1
2022-08-16T14:07:50.655Z,3
2022-08-16T14:10:04.538Z,3.1
2022-08-16T14:12:19.940Z,3.5
2022-08-16T14:14:34.295Z,3.1
2022-08-16T14:16:48.664Z,2.9
2022-08-16T14:19:04.026Z,3.1
2022-08-16T14:21:22.012Z,3.1
2022-08-16T14:23:35.985Z,3.3
2022-08-16T14:25:54.217Z,3.6
2022-08-16T14:28:10.640Z,3.1
2022-08-16T14:30:26.064Z,3.3
2022-08-16T14:32:42.489Z,2.9
2022-08-16T14:34:57.854Z,3.1
2022-08-16T14:37:12.243Z,3
2022-08-16T14:39:27.690Z,3.4
2022-08-16T14:41:42.956Z,3.5
2022-08-16T14:43:57.298Z,3.1
2022-08-16T14:46:11.688Z,3.2
2022-08-16T14:48:27.044Z,3.3
2022-08-16T14:50:42.384Z,3.2
2022-08-16T14:52:57.770Z,2.9
2022-08-16T14:55:13.230Z,2.9
2022-08-16T14:57:30.146Z,2.9
2022-08-16T14:59:46.560Z,2.9
2022-08-16T15:02:01.980Z,3.8
2022-08-16T15:04:32.206Z,3.3
2022-08-16T15:06:35.549Z,2.9
2022-08-16T15:08:50.954Z,2.9
2022-08-16T15:11:05.341Z,3.1
2022-08-16T15:13:19.710Z,2.9
2022-08-16T15:15:34.142Z,3.4
2022-08-16T15:17:54.335Z,3.3
2022-08-16T15:20:09.113Z,3.4
2022-08-16T15:22:25.141Z,3.4
2022-08-16T15:24:40.476Z,3.4
2022-08-16T15:26:55.893Z,3.4
2022-08-16T15:29:11.262Z,3.4
2022-08-16T15:31:26.599Z,3.4
2022-08-16T15:33:45.389Z,3.3
2022-08-16T15:35:59.303Z,3.2
2022-08-16T15:38:32.039Z,3.4
2022-08-16T15:40:35.279Z,3.1
2022-08-16T15:42:53.984Z,3.2
2022-08-16T15:45:11.223Z,3.3
2022-08-16T15:47:25.682Z,3
2022-08-16T15:49:45.765Z,3.3
2022-08-16T15:51:56.736Z,3.2
2022-08-16T15:54:16.393Z,3.4
2022-08-16T15:56:29.433Z,3.2
2022-08-16T15:58:44.707Z,3.3
2022-08-16T16:01:00.245Z,3.3
2022-08-16T16:03:14.586Z,3.3
2022-08-16T16:05:28.934Z,3.1
2022-08-16T16:07:56.029Z,2.8
2022-08-16T16:10:01.963Z,2.9
2022-08-16T16:12:44.021Z,3.5
2022-08-16T16:14:33.648Z,3.3
2022-08-16T16:16:49.080Z,3.3
2022-08-16T16:19:05.053Z,3.1
2022-08-16T16:21:21.443Z,3.7
2022-08-16T16:23:35.866Z,3.6
2022-08-16T16:25:52.202Z,3.1
2022-08-16T16:28:12.596Z,3.1
2022-08-16T16:30:32.871Z,3.2
2022-08-16T16:32:42.233Z,3.5
2022-08-16T16:34:56.704Z,3.3
2022-08-16T16:37:12.190Z,3.1
2022-08-16T16:39:28.390Z,3.1
2022-08-16T16:41:48.677Z,2.5
2022-08-16T16:44:03.825Z,3
2022-08-16T16:46:39.119Z,3.3
2022-08-16T16:48:37.438Z,3
2022-08-16T16:50:51.835Z,3.1
2022-08-16T16:53:16.651Z,3
2022-08-16T16:55:26.136Z,2.8
2022-08-16T16:57:42.521Z,3.3
2022-08-16T16:59:58.241Z,2.7
2022-08-16T17:02:39.582Z,2.6
2022-08-16T17:04:33.111Z,3
2022-08-16T17:06:53.162Z,4.5
2022-08-16T17:09:05.872Z,5.6
2022-08-16T17:11:21.165Z,5.4
2022-08-16T17:13:36.542Z,5.4
2022-08-16T17:15:52.955Z,3.8
2022-08-16T17:19:15.904Z,2.9
2022-08-16T17:20:27.233Z,3
2022-08-16T17:22:43.743Z,3.2
2022-08-16T17:24:59.029Z,2.8
2022-08-16T17:27:17.639Z,2.7
2022-08-16T17:29:32.297Z,3.1
2022-08-16T17:31:55.685Z,2.9
2022-08-16T17:34:28.645Z,3.5
2022-08-16T17:36:36.179Z,5.2
2022-08-16T17:38:47.206Z,5.1
2022-08-16T17:41:01.602Z,4.7
2022-08-16T17:43:15.969Z,5.9
2022-08-16T17:45:29.508Z,5.5
2022-08-16T17:47:43.826Z,6.4
2022-08-16T17:49:58.217Z,5
2022-08-16T17:52:21.369Z,5.4
2022-08-16T17:54:36.768Z,7.1
2022-08-16T17:56:52.024Z,4
2022-08-16T17:59:07.127Z,4.9
2022-08-16T18:01:22.000Z,6
2022-08-16T18:04:03.386Z,3.6
2022-08-16T18:05:55.893Z,4
2022-08-16T18:08:11.461Z,4
2022-08-16T18:10:32.972Z,5
2022-08-16T18:12:54.393Z,4.4
2022-08-16T18:15:01.780Z,4.5
2022-08-16T18:17:16.198Z,4.2
2022-08-16T18:19:30.653Z,4
2022-08-16T18:21:45.413Z,4.7
2022-08-16T18:24:03.899Z,4
2022-08-16T18:26:22.348Z,4.3
2022-08-16T18:28:38.025Z,4.5
2022-08-16T18:30:58.825Z,3.9
2022-08-16T18:33:09.812Z,4.1
2022-08-16T18:35:24.302Z,4.1
2022-08-16T18:37:39.126Z,3.9
2022-08-16T18:39:53.570Z,3.7
2022-08-16T18:42:08.976Z,4
2022-08-16T18:44:29.310Z,5.9
2022-08-16T18:46:40.864Z,6.5
2022-08-16T18:48:55.269Z,5.6
2022-08-16T18:51:16.609Z,5.2
2022-08-16T18:53:27.048Z,4.3
2022-08-16T18:55:45.385Z,3.8
2022-08-16T18:57:58.945Z,3.6
2022-08-16T19:00:13.330Z,3.9
2022-08-16T19:02:43.304Z,3.6
2022-08-16T19:04:55.166Z,4
2022-08-16T19:07:02.490Z,3.7
2022-08-16T19:09:16.815Z,3.8
2022-08-16T19:11:31.429Z,3.5
2022-08-16T19:13:47.430Z,3.6
2022-08-16T19:16:00.679Z,4
2022-08-16T19:18:15.033Z,4.2
2022-08-16T19:20:29.489Z,3.8
2022-08-16T19:23:02.613Z,3.8
2022-08-16T19:25:01.415Z,3.7
2022-08-16T19:27:16.793Z,3.7
2022-08-16T19:29:32.269Z,4
2022-08-16T19:31:46.663Z,3.9
2022-08-16T19:34:01.608Z,5.9
2022-08-16T19:36:32.240Z,5.4
2022-08-16T19:38:34.621Z,4.9
2022-08-16T19:40:49.564Z,3.9
2022-08-16T19:43:08.401Z,3.7
2022-08-16T19:45:22.947Z,3.7
2022-08-16T19:47:38.854Z,3.9
2022-08-16T19:49:53.244Z,3.9
2022-08-16T19:52:07.623Z,3.7
2022-08-16T19:54:22.033Z,4
2022-08-16T19:56:36.418Z,3.7
2022-08-16T19:59:17.264Z,4
2022-08-16T20:01:08.344Z,3.8
2022-08-16T20:03:22.844Z,3.4
2022-08-16T20:05:37.209Z,3.7
2022-08-16T20:07:55.819Z,3.8
2022-08-16T20:10:10.072Z,4
2022-08-16T20:12:24.444Z,4
2022-08-16T20:14:38.902Z,3.5
2022-08-16T20:16:53.318Z,3.7
2022-08-16T20:19:07.792Z,4.2
2022-08-16T20:21:22.200Z,4.7
2022-08-16T20:23:36.657Z,3.9
2022-08-16T20:25:52.053Z,3.5
2022-08-16T20:28:06.411Z,3.7
2022-08-16T20:30:20.909Z,3.8
2022-08-16T20:32:37.282Z,4.4
2022-08-16T20:34:51.648Z,4.9
2022-08-16T20:37:06.025Z,5.2
2022-08-16T20:39:20.457Z,6.8
2022-08-16T20:41:34.898Z,6.9
2022-08-16T20:43:49.359Z,6.7
2022-08-16T20:46:03.870Z,6.8
2022-08-16T20:48:18.433Z,7.2
2022-08-16T20:50:32.821Z,7.2
2022-08-16T20:52:47.247Z,7.2
2022-08-16T20:55:01.727Z,7.2
2022-08-16T20:57:16.172Z,6.9
2022-08-16T20:59:30.589Z,7.1
2022-08-16T21:01:50.037Z,7.1
2022-08-16T21:04:02.439Z,7
2022-08-16T21:06:16.882Z,6.7
2022-08-16T21:08:51.360Z,7.2
2022-08-16T21:10:48.934Z,7.1
2022-08-16T21:13:03.418Z,7
2022-08-16T21:15:18.075Z,6.9
2022-08-16T21:17:32.515Z,7.2
2022-08-16T21:19:46.938Z,6.7
2022-08-16T21:22:01.408Z,6.9
2022-08-16T21:24:15.746Z,6.7
2022-08-16T21:26:30.148Z,6.7
2022-08-16T21:28:46.500Z,6.7
